createdAt,value
2019-02-15T00:00:04.363Z,5.40
2019-02-15T00:02:41.415Z,5.40
2019-02-15T00:05:11.002Z,5.40
2019-02-15T00:07:42.603Z,5.30
2019-02-15T00:10:17.820Z,5.30
2019-02-15T00:12:48.492Z,5.30
2019-02-15T00:15:19.221Z,5.20
2019-02-15T00:17:55.459Z,5.20
2019-02-15T00:20:41.427Z,5.20
2019-02-15T00:23:11.185Z,5.20
2019-02-15T00:25:42.389Z,5.20
2019-02-15T00:28:16.371Z,5.20
2019-02-15T00:30:48.748Z,5.20
2019-02-15T00:33:20.045Z,5.10
2019-02-15T00:35:55.114Z,5.10
2019-02-15T00:38:25.648Z,5.10
2019-02-15T00:40:58.253Z,5.00
2019-02-15T00:43:28.562Z,5.00
2019-02-15T00:46:11.525Z,4.90
2019-02-15T00:48:51.618Z,4.90
2019-02-15T00:51:40.614Z,4.80
2019-02-15T00:54:14.494Z,4.80
2019-02-15T00:56:46.468Z,4.80
2019-02-15T00:59:23.743Z,4.80
2019-02-15T01:02:12.613Z,4.80
2019-02-15T01:04:58.973Z,4.80
2019-02-15T01:07:30.155Z,4.80
2019-02-15T01:10:04.614Z,4.80
2019-02-15T01:12:36.011Z,4.80
2019-02-15T01:15:07.531Z,4.70
2019-02-15T01:17:37.220Z,4.70
2019-02-15T01:20:06.836Z,4.70
2019-02-15T01:22:36.652Z,4.70
2019-02-15T01:25:06.769Z,4.70
2019-02-15T01:27:37.900Z,4.60
2019-02-15T01:30:19.621Z,4.60
2019-02-15T01:32:51.998Z,4.60
2019-02-15T01:35:26.298Z,4.50
2019-02-15T01:38:03.973Z,4.50
2019-02-15T01:40:37.751Z,4.40
2019-02-15T01:43:17.176Z,4.40
2019-02-15T01:45:57.336Z,4.30
2019-02-15T01:48:29.802Z,4.30
2019-02-15T01:50:59.419Z,4.30
2019-02-15T01:53:29.903Z,4.20
2019-02-15T01:55:59.557Z,4.20
2019-02-15T01:58:30.676Z,4.20
2019-02-15T02:01:00.433Z,4.20
2019-02-15T02:03:30.997Z,4.10
2019-02-15T02:06:03.062Z,4.10
2019-02-15T02:08:35.326Z,4.00
2019-02-15T02:11:08.159Z,4.00
2019-02-15T02:13:38.634Z,4.00
2019-02-15T02:16:08.540Z,3.90
2019-02-15T02:18:40.158Z,3.90
2019-02-15T02:21:09.799Z,3.90
2019-02-15T02:23:40.154Z,3.80
2019-02-15T02:26:13.472Z,3.80
2019-02-15T02:28:45.608Z,3.80
2019-02-15T02:31:15.316Z,3.80
2019-02-15T02:33:49.707Z,3.70
2019-02-15T02:39:17.975Z,3.60
2019-02-15T02:41:50.481Z,3.60
2019-02-15T02:44:30.690Z,3.60
2019-02-15T02:47:08.169Z,3.60
2019-02-15T02:49:47.386Z,3.60
2019-02-15T02:52:26.084Z,3.50
2019-02-15T02:55:00.043Z,3.50
2019-02-15T02:57:36.799Z,3.50
2019-02-15T03:00:09.962Z,3.50
2019-02-15T03:02:42.697Z,3.50
2019-02-15T03:05:16.355Z,3.50
2019-02-15T03:07:49.439Z,3.40
2019-02-15T03:10:22.726Z,3.40
2019-02-15T03:12:55.364Z,3.40
2019-02-15T03:15:31.138Z,3.40
2019-02-15T03:18:09.361Z,3.40
2019-02-15T03:20:51.755Z,3.30
2019-02-15T03:29:18.314Z,3.20
2019-02-15T03:31:52.406Z,3.20
2019-02-15T03:34:25.150Z,3.20
2019-02-15T03:37:09.992Z,3.20
2019-02-15T03:39:50.873Z,3.10
2019-02-15T03:42:30.354Z,3.10
2019-02-15T03:45:03.027Z,3.10
2019-02-15T03:47:42.398Z,3.10
2019-02-15T03:50:20.655Z,3.00
2019-02-15T03:53:00.736Z,3.00
2019-02-15T03:58:29.639Z,3.00
2019-02-15T04:01:18.136Z,2.90
2019-02-15T04:03:50.920Z,2.90
2019-02-15T04:06:27.317Z,2.90
2019-02-15T04:09:00.501Z,2.80
2019-02-15T04:11:57.512Z,2.80
2019-02-15T04:14:36.488Z,2.80
2019-02-15T04:17:34.107Z,2.70
2019-02-15T04:20:06.206Z,2.70
2019-02-15T04:22:45.003Z,2.70
2019-02-15T04:25:19.647Z,2.70
2019-02-15T04:27:59.420Z,2.60
2019-02-15T04:30:55.957Z,2.60
2019-02-15T04:33:28.949Z,2.60
2019-02-15T04:36:14.648Z,2.60
2019-02-15T04:38:54.406Z,2.60
2019-02-15T04:41:41.160Z,2.60
2019-02-15T04:44:10.743Z,2.60
2019-02-15T04:46:57.905Z,2.60
2019-02-15T04:49:30.913Z,2.60
2019-02-15T04:52:06.491Z,2.60
2019-02-15T04:54:40.831Z,2.60
2019-02-15T04:58:12.927Z,2.50
2019-02-15T05:00:02.339Z,2.50
2019-02-15T05:05:44.602Z,2.50
2019-02-15T05:08:31.925Z,2.40
2019-02-15T05:13:59.034Z,2.40
2019-02-15T05:16:40.147Z,2.40
2019-02-15T05:19:44.076Z,2.40
2019-02-15T05:28:08.865Z,2.40
2019-02-15T05:30:45.575Z,2.30
2019-02-15T05:33:24.189Z,2.40
2019-02-15T05:36:04.295Z,2.40
2019-02-15T05:38:45.031Z,2.40
2019-02-15T05:41:27.038Z,2.40
2019-02-15T05:44:17.642Z,2.40
2019-02-15T05:49:57.787Z,2.40
2019-02-15T05:52:33.999Z,2.40
2019-02-15T05:55:11.382Z,2.40
2019-02-15T06:04:00.265Z,2.40
2019-02-15T06:09:40.747Z,2.40
2019-02-15T06:12:32.243Z,2.40
2019-02-15T06:22:04.070Z,2.40
2019-02-15T06:24:59.422Z,2.30
2019-02-15T06:27:40.943Z,2.40
2019-02-15T06:30:17.994Z,2.30
2019-02-15T06:33:06.899Z,2.30
2019-02-15T06:35:39.205Z,2.30
2019-02-15T06:38:22.931Z,2.30
2019-02-15T06:40:57.943Z,2.30
2019-02-15T06:43:41.106Z,2.30
2019-02-15T06:46:20.880Z,2.30
2019-02-15T06:48:54.486Z,2.30
2019-02-15T06:51:31.638Z,2.30
2019-02-15T06:54:02.686Z,2.30
2019-02-15T06:56:36.616Z,2.30
2019-02-15T06:59:12.599Z,2.30
2019-02-15T07:01:50.591Z,2.30
2019-02-15T07:04:24.920Z,2.30
2019-02-15T07:07:03.823Z,2.30
2019-02-15T07:09:36.289Z,2.30
2019-02-15T07:12:09.553Z,2.30
2019-02-15T07:14:42.170Z,2.40
2019-02-15T07:17:32.458Z,2.40
2019-02-15T07:20:01.798Z,2.40
2019-02-15T07:22:37.579Z,2.40
2019-02-15T07:25:13.827Z,2.50
2019-02-15T07:27:59.166Z,2.50
2019-02-15T07:30:33.992Z,2.50
2019-02-15T07:33:06.880Z,2.50
2019-02-15T07:35:38.339Z,2.50
2019-02-15T07:38:14.766Z,2.60
2019-02-15T07:40:47.170Z,2.60
2019-02-15T07:43:22.941Z,2.60
2019-02-15T07:45:58.311Z,2.70
2019-02-15T07:48:30.048Z,2.70
2019-02-15T07:51:13.009Z,2.80
2019-02-15T07:53:49.052Z,2.80
2019-02-15T07:56:27.779Z,2.90
2019-02-15T07:59:06.265Z,3.10
2019-02-15T08:02:02.776Z,3.50
2019-02-15T08:14:27.290Z,7.30
2019-02-15T08:32:20.365Z,10.50
2019-02-15T09:49:27.880Z,13.90
2019-02-15T09:52:12.459Z,14.70
2019-02-15T09:55:14.161Z,15.60
2019-02-15T09:59:49.132Z,16.10
2019-02-15T10:01:03.386Z,16.30
2019-02-15T10:25:27.296Z,16.50
2019-02-15T10:31:16.732Z,16.90
2019-02-15T11:20:47.535Z,20.20
2019-02-15T11:29:26.626Z,20.50
2019-02-15T11:46:56.281Z,21.50
2019-02-15T12:57:42.783Z,22.90
2019-02-15T13:09:41.222Z,23.50
2019-02-15T13:28:01.979Z,22.90
2019-02-15T14:46:26.037Z,19.10
2019-02-15T15:05:26.838Z,17.90
2019-02-15T15:08:32.414Z,17.80
2019-02-15T15:11:19.274Z,17.70
2019-02-15T15:14:02.572Z,17.60
2019-02-15T15:16:39.227Z,17.50
2019-02-15T15:19:34.007Z,17.40
2019-02-15T15:22:12.412Z,17.30
2019-02-15T15:24:46.866Z,17.10
2019-02-15T15:27:23.601Z,17.10
2019-02-15T15:30:04.565Z,17.00
2019-02-15T15:32:45.004Z,16.90
2019-02-15T15:41:48.114Z,16.70
2019-02-15T15:44:32.247Z,16.60
2019-02-15T15:47:29.374Z,16.40
2019-02-15T15:50:25.427Z,16.30
2019-02-15T15:53:30.914Z,16.30
2019-02-15T15:56:12.506Z,16.20
2019-02-15T15:59:00.542Z,16.10
2019-02-15T16:01:38.689Z,16.10
2019-02-15T16:04:23.566Z,16.00
2019-02-15T16:07:03.717Z,15.90
2019-02-15T16:13:03.252Z,15.80
2019-02-15T16:15:53.364Z,15.70
2019-02-15T16:18:34.840Z,15.60
2019-02-15T16:21:22.037Z,15.50
2019-02-15T16:24:12.114Z,15.40
2019-02-15T16:26:43.769Z,15.30
2019-02-15T16:29:35.035Z,15.20
2019-02-15T16:32:30.759Z,15.20
2019-02-15T16:35:15.569Z,15.00
2019-02-15T16:37:48.878Z,15.00
2019-02-15T16:40:25.919Z,14.90
2019-02-15T16:43:00.752Z,14.80
2019-02-15T16:45:32.210Z,14.70
2019-02-15T16:48:09.791Z,14.50
2019-02-15T16:50:42.450Z,14.40
2019-02-15T16:53:14.557Z,14.20
2019-02-15T16:55:48.868Z,14.10
2019-02-15T16:58:25.985Z,13.90
2019-02-15T17:00:59.996Z,13.80
2019-02-15T17:03:31.296Z,13.60
2019-02-15T17:06:03.999Z,13.50
2019-02-15T17:08:36.358Z,13.40
2019-02-15T17:11:06.348Z,13.30
2019-02-15T17:13:40.538Z,13.20
2019-02-15T17:16:12.569Z,13.10
2019-02-15T17:18:52.175Z,13.00
2019-02-15T17:21:28.301Z,12.90
2019-02-15T17:24:00.375Z,12.80
2019-02-15T17:26:35.425Z,12.70
2019-02-15T17:29:09.184Z,12.50
2019-02-15T17:31:40.524Z,12.50
2019-02-15T17:34:11.917Z,12.40
2019-02-15T17:36:44.147Z,12.30
2019-02-15T17:39:14.515Z,12.20
2019-02-15T17:41:45.948Z,12.20
2019-02-15T17:44:20.657Z,12.10
2019-02-15T17:46:55.035Z,12.00
2019-02-15T17:49:33.300Z,11.90
2019-02-15T17:52:07.988Z,11.70
2019-02-15T17:54:46.084Z,11.60
2019-02-15T17:57:26.152Z,11.50
2019-02-15T17:59:52.047Z,11.50
2019-02-15T18:02:22.101Z,11.30
2019-02-15T18:04:51.905Z,11.20
2019-02-15T18:07:27.101Z,11.10
2019-02-15T18:09:56.841Z,11.00
2019-02-15T18:12:26.631Z,10.90
2019-02-15T18:15:07.149Z,10.90
2019-02-15T18:20:42.737Z,10.70
2019-02-15T18:23:18.763Z,10.60
2019-02-15T18:26:25.265Z,10.60
2019-02-15T18:29:02.175Z,10.50
2019-02-15T18:31:36.357Z,10.50
2019-02-15T18:34:14.751Z,10.40
2019-02-15T18:37:07.866Z,10.30
2019-02-15T18:45:39.942Z,10.10
2019-02-15T18:48:20.630Z,10.00
2019-02-15T18:53:49.165Z,9.90
2019-02-15T18:56:32.450Z,9.80
2019-02-15T18:59:10.829Z,9.80
2019-02-15T19:01:48.890Z,9.80
2019-02-15T19:08:00.819Z,9.70
2019-02-15T19:13:45.573Z,9.60
2019-02-15T19:16:29.661Z,9.60
2019-02-15T19:19:08.975Z,9.50
2019-02-15T19:21:43.006Z,9.50
2019-02-15T19:24:21.011Z,9.50
2019-02-15T19:26:55.331Z,9.50
2019-02-15T19:29:27.749Z,9.40
2019-02-15T19:32:02.473Z,9.40
2019-02-15T19:34:43.074Z,9.30
2019-02-15T19:37:31.746Z,9.30
2019-02-15T19:40:14.759Z,9.30
2019-02-15T19:43:29.061Z,9.20
2019-02-15T19:48:55.844Z,9.10
2019-02-15T19:51:30.201Z,9.10
2019-02-15T19:54:04.081Z,9.00
2019-02-15T19:56:38.098Z,9.00
2019-02-15T19:59:20.666Z,9.00
2019-02-15T20:01:51.715Z,9.00
2019-02-15T20:04:21.352Z,9.00
2019-02-15T20:07:09.609Z,9.00
2019-02-15T20:09:34.705Z,9.00
2019-02-15T20:12:09.069Z,9.00
2019-02-15T20:14:38.640Z,9.00
2019-02-15T20:17:08.140Z,8.90
2019-02-15T20:19:37.786Z,9.00
2019-02-15T20:22:07.224Z,8.90
2019-02-15T20:24:36.783Z,9.00
2019-02-15T20:27:07.283Z,8.90
2019-02-15T20:29:36.766Z,8.90
2019-02-15T20:32:06.296Z,8.90
2019-02-15T20:34:45.035Z,8.90
2019-02-15T20:37:07.883Z,8.90
2019-02-15T20:39:38.093Z,8.90
2019-02-15T20:42:07.527Z,8.90
2019-02-15T20:44:37.727Z,8.90
2019-02-15T20:47:08.741Z,8.90
2019-02-15T20:49:38.375Z,8.90
2019-02-15T20:52:07.937Z,8.90
2019-02-15T20:54:38.406Z,8.80
2019-02-15T20:57:08.136Z,8.80
2019-02-15T20:59:38.481Z,8.80
2019-02-15T21:02:11.123Z,8.80
2019-02-15T21:04:41.871Z,8.80
2019-02-15T21:07:16.276Z,8.80
2019-02-15T21:09:46.104Z,8.70
2019-02-15T21:12:15.886Z,8.70
2019-02-15T21:14:45.515Z,8.70
2019-02-15T21:17:15.046Z,8.70
2019-02-15T21:19:46.174Z,8.70
2019-02-15T21:22:21.046Z,8.70
2019-02-15T21:24:50.524Z,8.70
2019-02-15T21:27:20.171Z,8.60
2019-02-15T21:29:49.654Z,8.60
2019-02-15T21:32:19.282Z,8.60
2019-02-15T21:34:48.832Z,8.60
2019-02-15T21:37:18.991Z,8.60
2019-02-15T21:39:48.453Z,8.60
2019-02-15T21:42:18.210Z,8.60
2019-02-15T21:44:47.890Z,8.60
2019-02-15T21:47:17.504Z,8.60
2019-02-15T21:49:47.116Z,8.60
2019-02-15T21:52:16.639Z,8.70
2019-02-15T21:54:47.171Z,8.70
2019-02-15T21:57:16.679Z,8.70
2019-02-15T21:59:46.530Z,8.70
2019-02-15T22:02:18.828Z,8.60
2019-02-15T22:04:48.337Z,8.60
2019-02-15T22:07:19.396Z,8.60
2019-02-15T22:09:50.360Z,8.60
2019-02-15T22:12:19.886Z,8.60
2019-02-15T22:14:49.432Z,8.50
2019-02-15T22:17:18.867Z,8.60
2019-02-15T22:19:48.471Z,8.60
2019-02-15T22:22:18.322Z,8.60
2019-02-15T22:24:48.503Z,8.70
2019-02-15T22:27:38.173Z,8.70
2019-02-15T22:30:12.790Z,8.70
2019-02-15T22:32:42.711Z,8.70
2019-02-15T22:35:12.325Z,8.70
2019-02-15T22:37:41.678Z,8.70
2019-02-15T22:40:33.292Z,8.70
2019-02-15T22:43:08.076Z,8.70
2019-02-15T22:45:37.558Z,8.70
2019-02-15T22:48:08.096Z,8.70
2019-02-15T22:50:37.714Z,8.60
2019-02-15T22:53:08.341Z,8.60
2019-02-15T22:55:37.903Z,8.60
2019-02-15T22:58:09.211Z,8.60
2019-02-15T23:00:54.634Z,8.60
2019-02-15T23:03:26.634Z,8.60
2019-02-15T23:05:56.150Z,8.50
2019-02-15T23:08:26.225Z,8.50
2019-02-15T23:10:55.662Z,8.60
2019-02-15T23:13:30.083Z,8.60
2019-02-15T23:15:59.553Z,8.60
2019-02-15T23:18:29.050Z,8.60
2019-02-15T23:20:58.661Z,8.60
2019-02-15T23:23:28.852Z,8.60
2019-02-15T23:25:58.390Z,8.60
2019-02-15T23:28:27.793Z,8.60
2019-02-15T23:30:57.388Z,8.60
2019-02-15T23:33:26.982Z,8.50
2019-02-15T23:35:56.550Z,8.50
2019-02-15T23:38:26.221Z,8.50
2019-02-15T23:40:58.981Z,8.50
2019-02-15T23:43:28.420Z,8.40
2019-02-15T23:45:57.977Z,8.40
2019-02-15T23:52:02.592Z,8.40
2019-02-15T23:54:32.691Z,8.40
2019-02-15T23:57:02.296Z,8.40
2019-02-15T23:59:32.561Z,8.40
